createdAt,value
2019-04-30T00:02:16.380Z,100.00
2019-04-30T00:04:47.194Z,100.00
2019-04-30T00:07:15.473Z,100.00
2019-04-30T00:09:41.253Z,100.00
2019-04-30T00:12:07.338Z,100.00
2019-04-30T00:14:38.589Z,100.00
2019-04-30T00:17:01.420Z,100.00
2019-04-30T00:19:27.225Z,100.00
2019-04-30T00:21:56.864Z,100.00
2019-04-30T00:26:55.149Z,100.00
2019-04-30T00:29:26.975Z,100.00
2019-04-30T00:31:49.033Z,100.00
2019-04-30T00:34:15.245Z,100.00
2019-04-30T00:36:41.138Z,100.00
2019-04-30T00:39:13.191Z,100.00
2019-04-30T00:41:35.348Z,100.00
2019-04-30T00:44:01.322Z,100.00
2019-04-30T00:46:29.336Z,100.00
2019-04-30T00:48:56.789Z,100.00
2019-04-30T00:51:22.537Z,100.00
2019-04-30T00:53:51.384Z,100.00
2019-04-30T00:56:19.879Z,100.00
2019-04-30T00:58:45.237Z,100.00
2019-04-30T01:01:15.734Z,100.00
2019-04-30T01:03:46.383Z,100.00
2019-04-30T01:06:11.247Z,100.00
2019-04-30T01:08:37.337Z,100.00
2019-04-30T01:11:09.414Z,100.00
2019-04-30T01:13:33.204Z,100.00
2019-04-30T01:15:58.991Z,100.00
2019-04-30T01:18:30.586Z,100.00
2019-04-30T01:20:52.713Z,100.00
2019-04-30T01:23:19.607Z,100.00
2019-04-30T01:25:49.964Z,100.00
2019-04-30T01:28:16.336Z,100.00
2019-04-30T01:30:41.543Z,100.00
2019-04-30T01:33:09.026Z,100.00
2019-04-30T01:35:34.971Z,100.00
2019-04-30T01:38:04.086Z,100.00
2019-04-30T01:40:28.684Z,100.00
2019-04-30T01:42:54.508Z,100.00
2019-04-30T01:45:23.106Z,100.00
2019-04-30T01:47:49.616Z,100.00
2019-04-30T01:50:15.795Z,100.00
2019-04-30T01:52:53.683Z,100.00
2019-04-30T01:55:22.934Z,100.00
2019-04-30T01:58:00.089Z,100.00
2019-04-30T02:00:39.995Z,100.00
2019-04-30T02:03:05.897Z,100.00
2019-04-30T02:05:31.681Z,100.00
2019-04-30T02:07:58.497Z,100.00
2019-04-30T02:10:24.399Z,100.00
2019-04-30T02:12:50.160Z,100.00
2019-04-30T02:15:16.341Z,100.00
2019-04-30T02:17:44.906Z,100.00
2019-04-30T02:20:11.109Z,100.00
2019-04-30T02:22:41.271Z,100.00
2019-04-30T02:25:09.475Z,100.00
2019-04-30T02:27:35.504Z,100.00
2019-04-30T02:30:02.679Z,100.00
2019-04-30T02:32:30.487Z,100.00
2019-04-30T02:35:01.231Z,100.00
2019-04-30T02:37:30.112Z,100.00
2019-04-30T02:39:56.015Z,100.00
2019-04-30T02:42:22.363Z,100.00
2019-04-30T02:44:50.369Z,100.00
2019-04-30T02:47:16.856Z,100.00
2019-04-30T02:49:43.542Z,100.00
2019-04-30T02:52:09.849Z,100.00
2019-04-30T02:54:39.449Z,100.00
2019-04-30T02:57:06.430Z,100.00
2019-04-30T02:59:32.267Z,100.00
2019-04-30T03:01:59.772Z,100.00
2019-04-30T03:04:25.836Z,100.00
2019-04-30T03:06:51.931Z,100.00
2019-04-30T03:09:20.064Z,100.00
2019-04-30T03:11:45.451Z,100.00
2019-04-30T03:14:11.255Z,100.00
2019-04-30T03:16:44.718Z,100.00
2019-04-30T03:19:29.603Z,100.00
2019-04-30T03:22:06.800Z,100.00
2019-04-30T03:24:32.640Z,100.00
2019-04-30T03:26:59.417Z,100.00
2019-04-30T03:29:25.574Z,100.00
2019-04-30T03:31:52.585Z,100.00
2019-04-30T03:34:25.201Z,100.00
2019-04-30T03:36:46.556Z,100.00
2019-04-30T03:39:12.364Z,100.00
2019-04-30T03:41:41.392Z,100.00
2019-04-30T03:44:17.108Z,100.00
2019-04-30T03:46:34.123Z,100.00
2019-04-30T03:49:00.232Z,100.00
2019-04-30T03:51:26.297Z,100.00
2019-04-30T03:53:52.095Z,100.00
2019-04-30T03:56:22.424Z,100.00
2019-04-30T03:58:45.603Z,100.00
2019-04-30T04:01:22.432Z,100.00
2019-04-30T04:04:05.271Z,100.00
2019-04-30T04:06:33.247Z,100.00
2019-04-30T04:09:01.223Z,100.00
2019-04-30T04:11:29.797Z,100.00
2019-04-30T04:13:55.834Z,100.00
2019-04-30T04:16:21.918Z,100.00
2019-04-30T04:18:50.057Z,100.00
2019-04-30T04:21:16.882Z,100.00
2019-04-30T04:23:43.153Z,100.00
2019-04-30T04:26:09.571Z,100.00
2019-04-30T04:28:35.476Z,100.00
2019-04-30T04:31:01.330Z,100.00
2019-04-30T04:33:29.576Z,100.00
2019-04-30T04:35:55.049Z,100.00
2019-04-30T04:38:20.857Z,100.00
2019-04-30T04:40:46.631Z,100.00
2019-04-30T04:43:12.412Z,100.00
2019-04-30T04:45:40.419Z,100.00
2019-04-30T04:48:06.443Z,100.00
2019-04-30T04:50:32.243Z,100.00
2019-04-30T04:52:59.492Z,100.00
2019-04-30T04:55:25.380Z,100.00
2019-04-30T04:57:51.439Z,100.00
2019-04-30T05:00:19.469Z,100.00
2019-04-30T05:02:49.941Z,100.00
2019-04-30T05:05:16.062Z,100.00
2019-04-30T05:07:41.873Z,100.00
2019-04-30T05:10:09.183Z,100.00
2019-04-30T05:12:37.379Z,100.00
2019-04-30T05:15:04.138Z,100.00
2019-04-30T05:17:32.134Z,100.00
2019-04-30T05:19:58.688Z,100.00
2019-04-30T05:22:24.681Z,100.00
2019-04-30T05:24:50.853Z,100.00
2019-04-30T05:27:16.719Z,100.00
2019-04-30T05:29:42.528Z,100.00
2019-04-30T05:32:09.502Z,100.00
2019-04-30T05:34:35.370Z,100.00
2019-04-30T05:37:01.147Z,100.00
2019-04-30T05:39:28.416Z,100.00
2019-04-30T05:41:54.319Z,100.00
2019-04-30T05:44:20.122Z,100.00
2019-04-30T05:46:45.953Z,100.00
2019-04-30T05:49:11.791Z,100.00
2019-04-30T05:51:38.785Z,100.00
2019-04-30T05:54:04.974Z,100.00
2019-04-30T05:56:30.785Z,100.00
2019-04-30T05:58:56.589Z,100.00
2019-04-30T06:01:24.279Z,100.00
2019-04-30T06:03:50.197Z,100.00
2019-04-30T06:06:16.021Z,100.00
2019-04-30T06:08:46.189Z,100.00
2019-04-30T06:11:13.894Z,100.00
2019-04-30T06:13:50.647Z,100.00
2019-04-30T06:16:18.843Z,100.00
2019-04-30T06:18:44.738Z,100.00
2019-04-30T06:21:11.050Z,100.00
2019-04-30T06:23:36.864Z,100.00
2019-04-30T06:26:09.650Z,100.00
2019-04-30T06:28:30.975Z,100.00
2019-04-30T06:30:59.028Z,100.00
2019-04-30T06:33:24.895Z,100.00
2019-04-30T06:35:51.103Z,100.00
2019-04-30T06:38:18.470Z,100.00
2019-04-30T06:40:44.397Z,100.00
2019-04-30T06:43:10.365Z,100.00
2019-04-30T06:45:36.291Z,100.00
2019-04-30T06:48:02.584Z,100.00
2019-04-30T06:50:29.288Z,100.00
2019-04-30T06:52:58.779Z,100.00
2019-04-30T06:55:23.492Z,100.00
2019-04-30T06:57:49.824Z,100.00
2019-04-30T07:00:15.851Z,100.00
2019-04-30T07:02:41.670Z,100.00
2019-04-30T07:05:09.942Z,100.00
2019-04-30T07:07:39.240Z,100.00
2019-04-30T07:10:10.113Z,100.00
2019-04-30T07:12:42.054Z,100.00
2019-04-30T07:15:08.707Z,100.00
2019-04-30T07:17:34.566Z,100.00
2019-04-30T07:20:00.368Z,100.00
2019-04-30T07:22:39.083Z,100.00
2019-04-30T07:24:54.122Z,100.00
2019-04-30T07:27:23.943Z,100.00
2019-04-30T07:29:49.497Z,100.00
2019-04-30T07:32:15.435Z,100.00
2019-04-30T07:34:41.227Z,100.00
2019-04-30T07:37:14.586Z,100.00
2019-04-30T07:39:34.975Z,100.00
2019-04-30T07:42:01.053Z,100.00
2019-04-30T07:44:33.704Z,100.00
2019-04-30T07:46:54.880Z,100.00
2019-04-30T07:49:20.904Z,100.00
2019-04-30T07:51:47.487Z,100.00
2019-04-30T07:54:13.947Z,100.00
2019-04-30T07:56:41.663Z,100.00
2019-04-30T07:59:11.045Z,100.00
2019-04-30T08:01:35.833Z,100.00
2019-04-30T08:04:08.673Z,100.00
2019-04-30T08:06:34.865Z,100.00
2019-04-30T08:09:01.465Z,100.00
2019-04-30T08:11:29.366Z,100.00
2019-04-30T08:13:55.303Z,100.00
2019-04-30T08:16:21.348Z,100.00
2019-04-30T08:18:49.132Z,99.88
2019-04-30T08:21:14.919Z,100.00
2019-04-30T08:23:40.777Z,100.00
2019-04-30T08:26:08.699Z,99.88
2019-04-30T08:28:34.652Z,99.63
2019-04-30T08:31:00.470Z,99.46
2019-04-30T08:33:26.555Z,99.10
2019-04-30T08:35:52.382Z,98.63
2019-04-30T08:38:19.165Z,97.24
2019-04-30T08:40:55.507Z,97.02
2019-04-30T08:43:13.112Z,97.24
2019-04-30T08:45:39.063Z,96.97
2019-04-30T08:48:05.098Z,97.11
2019-04-30T08:50:31.692Z,97.27
2019-04-30T08:52:59.399Z,97.53
2019-04-30T08:55:25.356Z,97.12
2019-04-30T08:57:51.188Z,97.89
2019-04-30T09:00:19.134Z,97.46
2019-04-30T09:02:45.328Z,97.69
2019-04-30T09:05:13.455Z,97.39
2019-04-30T09:07:39.506Z,95.81
2019-04-30T09:10:05.542Z,95.92
2019-04-30T09:12:31.369Z,95.71
2019-04-30T09:14:59.050Z,95.92
2019-04-30T09:17:25.267Z,95.44
2019-04-30T09:19:51.372Z,95.22
2019-04-30T09:22:19.297Z,95.05
2019-04-30T09:24:44.923Z,94.61
2019-04-30T09:27:10.895Z,94.36
2019-04-30T09:29:36.661Z,94.02
2019-04-30T09:32:02.724Z,93.82
2019-04-30T09:34:29.208Z,94.05
2019-04-30T09:36:55.186Z,93.81
2019-04-30T09:39:23.136Z,93.94
2019-04-30T09:41:49.602Z,93.36
2019-04-30T09:44:15.804Z,93.73
2019-04-30T09:46:41.698Z,93.38
2019-04-30T09:49:09.539Z,92.62
2019-04-30T09:51:35.375Z,94.01
2019-04-30T09:54:03.721Z,93.16
2019-04-30T09:56:29.476Z,94.25
2019-04-30T09:58:55.452Z,94.74
2019-04-30T10:01:22.153Z,94.55
2019-04-30T10:03:50.458Z,94.29
2019-04-30T10:06:16.055Z,93.56
2019-04-30T10:08:48.329Z,95.33
2019-04-30T10:11:11.518Z,95.61
2019-04-30T10:13:37.344Z,93.22
2019-04-30T10:16:11.097Z,93.65
2019-04-30T10:18:37.176Z,93.93
2019-04-30T10:21:03.419Z,93.83
2019-04-30T10:23:30.329Z,90.88
2019-04-30T10:25:56.533Z,93.20
2019-04-30T10:28:22.433Z,92.50
2019-04-30T10:30:48.274Z,90.62
2019-04-30T10:33:14.083Z,90.34
2019-04-30T10:35:39.905Z,90.49
2019-04-30T10:38:05.730Z,89.71
2019-04-30T10:40:31.778Z,89.74
2019-04-30T10:42:58.662Z,88.68
2019-04-30T10:45:24.632Z,89.90
2019-04-30T10:47:50.416Z,89.98
2019-04-30T10:50:16.414Z,89.42
2019-04-30T10:52:42.527Z,90.52
2019-04-30T10:55:09.380Z,89.80
2019-04-30T10:57:35.651Z,88.59
2019-04-30T11:00:07.800Z,88.71
2019-04-30T11:02:33.569Z,88.24
2019-04-30T11:04:59.385Z,88.10
2019-04-30T11:07:25.203Z,87.52
2019-04-30T11:09:51.117Z,86.58
2019-04-30T11:12:16.910Z,85.62
2019-04-30T11:14:42.739Z,85.23
2019-04-30T11:17:09.918Z,84.16
2019-04-30T11:19:36.130Z,85.08
2019-04-30T11:22:02.352Z,85.76
2019-04-30T11:24:36.614Z,82.79
2019-04-30T11:26:58.758Z,81.35
2019-04-30T11:29:24.520Z,79.77
2019-04-30T11:31:52.553Z,75.58
2019-04-30T11:34:18.784Z,74.20
2019-04-30T11:36:44.610Z,74.98
2019-04-30T11:39:12.530Z,72.90
2019-04-30T11:41:39.519Z,71.80
2019-04-30T11:44:05.498Z,69.62
2019-04-30T11:46:35.104Z,72.29
2019-04-30T11:49:00.939Z,74.94
2019-04-30T11:51:28.982Z,74.89
2019-04-30T11:53:54.732Z,72.09
2019-04-30T11:56:20.793Z,71.26
2019-04-30T11:58:48.791Z,64.27
2019-04-30T12:01:16.496Z,65.54
2019-04-30T12:03:42.814Z,67.29
2019-04-30T12:06:08.998Z,66.58
2019-04-30T12:08:54.829Z,66.90
2019-04-30T12:11:22.569Z,65.35
2019-04-30T12:13:48.415Z,63.97
2019-04-30T12:16:14.198Z,60.80
2019-04-30T12:18:40.052Z,62.97
2019-04-30T12:21:05.846Z,61.28
2019-04-30T12:23:31.652Z,58.87
2019-04-30T12:26:00.992Z,56.02
2019-04-30T12:28:27.262Z,55.20
2019-04-30T12:30:53.047Z,56.43
2019-04-30T12:33:19.273Z,57.53
2019-04-30T12:35:45.168Z,57.00
2019-04-30T12:38:12.282Z,57.00
2019-04-30T12:40:38.981Z,58.22
2019-04-30T12:43:05.265Z,57.34
2019-04-30T12:45:31.110Z,57.34
2019-04-30T12:48:11.044Z,54.09
2019-04-30T12:50:55.571Z,53.70
2019-04-30T12:53:26.064Z,51.89
2019-04-30T12:56:00.400Z,56.34
2019-04-30T12:58:26.377Z,56.34
2019-04-30T13:00:52.166Z,54.64
2019-04-30T13:03:18.011Z,53.93
2019-04-30T13:05:44.368Z,52.74
2019-04-30T13:08:11.201Z,51.93
2019-04-30T13:10:38.149Z,49.22
2019-04-30T13:13:04.777Z,50.04
2019-04-30T13:15:31.212Z,48.29
2019-04-30T13:17:58.573Z,47.55
2019-04-30T13:20:24.757Z,49.31
2019-04-30T13:22:50.613Z,49.21
2019-04-30T13:25:29.566Z,47.20
2019-04-30T13:27:52.219Z,48.13
2019-04-30T13:30:23.248Z,47.38
2019-04-30T13:33:03.205Z,47.45
2019-04-30T13:35:29.109Z,48.41
2019-04-30T13:38:03.125Z,44.58
2019-04-30T13:40:46.748Z,45.34
2019-04-30T13:43:14.982Z,47.26
2019-04-30T13:45:40.785Z,47.05
2019-04-30T13:48:06.648Z,45.92
2019-04-30T13:50:32.461Z,45.19
2019-04-30T13:52:58.851Z,47.42
2019-04-30T13:55:24.981Z,48.71
2019-04-30T13:57:51.114Z,46.92
2019-04-30T14:00:21.596Z,48.51
2019-04-30T14:02:49.325Z,50.56
2019-04-30T14:05:17.125Z,50.68
2019-04-30T14:07:53.697Z,48.75
2019-04-30T14:10:20.470Z,50.04
2019-04-30T14:12:48.947Z,50.40
2019-04-30T14:15:15.350Z,49.32
2019-04-30T14:17:41.440Z,47.73
2019-04-30T14:20:07.620Z,48.06
2019-04-30T14:22:34.342Z,46.60
2019-04-30T14:25:00.489Z,47.89
2019-04-30T14:27:26.293Z,46.73
2019-04-30T14:29:52.105Z,48.92
2019-04-30T14:32:18.602Z,48.11
2019-04-30T14:34:44.446Z,46.92
2019-04-30T14:37:10.236Z,47.01
2019-04-30T14:39:36.298Z,48.34
2019-04-30T14:42:03.192Z,49.21
2019-04-30T14:44:32.598Z,48.39
2019-04-30T14:47:20.286Z,49.43
2019-04-30T14:49:59.133Z,49.10
2019-04-30T14:52:15.082Z,47.87
2019-04-30T14:54:43.077Z,47.94
2019-04-30T14:57:29.467Z,47.72
2019-04-30T15:00:02.076Z,46.28
2019-04-30T15:02:32.284Z,43.05
2019-04-30T15:04:58.788Z,42.61
2019-04-30T15:07:24.809Z,38.79
2019-04-30T15:09:54.154Z,40.11
2019-04-30T15:12:20.067Z,39.23
2019-04-30T15:14:45.900Z,39.49
2019-04-30T15:17:11.689Z,38.13
2019-04-30T15:19:37.742Z,40.67
2019-04-30T15:22:04.015Z,38.73
2019-04-30T15:24:32.128Z,40.15
2019-04-30T15:26:58.171Z,39.81
2019-04-30T15:29:24.047Z,40.28
2019-04-30T15:31:50.122Z,39.13
2019-04-30T15:34:15.924Z,39.36
2019-04-30T15:36:41.765Z,40.35
2019-04-30T15:39:10.140Z,41.33
2019-04-30T15:41:35.931Z,41.20
2019-04-30T15:44:01.773Z,43.10
2019-04-30T15:46:27.620Z,40.29
2019-04-30T15:48:53.855Z,40.07
2019-04-30T15:51:19.630Z,40.33
2019-04-30T15:53:45.450Z,39.22
2019-04-30T15:56:11.236Z,39.54
2019-04-30T15:58:41.886Z,39.26
2019-04-30T16:01:09.700Z,38.30
2019-04-30T16:03:37.398Z,38.86
2019-04-30T16:06:03.572Z,38.37
2019-04-30T16:08:31.329Z,37.13
2019-04-30T16:11:10.364Z,37.78
2019-04-30T16:13:54.041Z,37.05
2019-04-30T16:16:19.873Z,37.37
2019-04-30T16:18:49.367Z,39.73
2019-04-30T16:21:15.572Z,40.41
2019-04-30T16:23:41.634Z,40.67
2019-04-30T16:26:07.714Z,39.75
2019-04-30T16:28:33.810Z,40.04
2019-04-30T16:30:59.798Z,39.61
2019-04-30T16:33:25.546Z,38.93
2019-04-30T16:35:51.366Z,38.87
2019-04-30T16:38:18.357Z,38.55
2019-04-30T16:40:44.887Z,39.48
2019-04-30T16:43:10.997Z,39.31
2019-04-30T16:45:38.838Z,41.08
2019-04-30T16:48:05.092Z,41.18
2019-04-30T16:50:30.888Z,41.68
2019-04-30T16:52:56.711Z,41.27
2019-04-30T16:55:22.561Z,41.98
2019-04-30T16:57:49.827Z,42.13
2019-04-30T17:00:16.473Z,42.62
2019-04-30T17:02:44.437Z,42.25
2019-04-30T17:05:21.054Z,43.07
2019-04-30T17:07:51.556Z,43.05
2019-04-30T17:10:22.337Z,43.62
2019-04-30T17:12:56.098Z,42.45
2019-04-30T17:15:23.821Z,44.02
2019-04-30T17:17:50.033Z,44.60
2019-04-30T17:20:16.190Z,45.73
2019-04-30T17:22:42.590Z,45.28
2019-04-30T17:25:08.493Z,46.17
2019-04-30T17:27:34.348Z,45.32
2019-04-30T17:30:00.414Z,46.48
2019-04-30T17:32:28.460Z,45.20
2019-04-30T17:34:54.231Z,46.62
2019-04-30T17:37:20.045Z,46.62
2019-04-30T17:39:46.158Z,48.14
2019-04-30T17:42:12.528Z,48.84
2019-04-30T17:44:39.753Z,48.63
2019-04-30T17:47:05.612Z,48.63
2019-04-30T17:49:31.446Z,48.95
2019-04-30T17:51:59.115Z,48.61
2019-04-30T17:54:24.982Z,49.58
2019-04-30T17:56:51.054Z,50.26
2019-04-30T17:59:16.852Z,50.20
2019-04-30T18:01:44.577Z,49.79
2019-04-30T18:04:10.397Z,50.74
2019-04-30T18:06:36.692Z,51.08
2019-04-30T18:09:05.689Z,49.77
2019-04-30T18:11:31.780Z,50.94
2019-04-30T18:13:59.018Z,50.79
2019-04-30T18:16:24.882Z,51.18
2019-04-30T18:18:52.612Z,52.98
2019-04-30T18:21:28.776Z,52.48
2019-04-30T18:24:02.856Z,52.58
2019-04-30T18:26:28.736Z,51.93
2019-04-30T18:28:54.580Z,53.94
2019-04-30T18:31:20.565Z,54.22
2019-04-30T18:33:46.511Z,54.57
2019-04-30T18:36:12.684Z,55.67
2019-04-30T18:38:39.149Z,56.76
2019-04-30T18:41:05.118Z,57.68
2019-04-30T18:43:31.244Z,58.95
2019-04-30T18:45:57.055Z,59.43
2019-04-30T18:48:22.854Z,58.05
2019-04-30T18:50:48.718Z,57.04
2019-04-30T18:53:18.468Z,57.19
2019-04-30T18:55:44.351Z,59.05
2019-04-30T18:58:10.160Z,60.58
2019-04-30T19:00:43.480Z,61.37
2019-04-30T19:03:09.693Z,61.66
2019-04-30T19:05:36.059Z,61.74
2019-04-30T19:08:19.796Z,60.82
2019-04-30T19:10:53.831Z,61.54
2019-04-30T19:13:29.898Z,63.11
2019-04-30T19:16:21.803Z,63.80
2019-04-30T19:19:00.948Z,64.24
2019-04-30T19:21:26.930Z,64.44
2019-04-30T19:23:53.040Z,65.18
2019-04-30T19:26:20.792Z,65.76
2019-04-30T19:28:46.576Z,65.53
2019-04-30T19:31:12.568Z,65.93
2019-04-30T19:33:38.975Z,65.43
2019-04-30T19:36:04.972Z,64.65
2019-04-30T19:38:30.829Z,65.37
2019-04-30T19:40:56.623Z,66.70
2019-04-30T19:43:22.427Z,67.51
2019-04-30T19:45:49.007Z,68.14
2019-04-30T19:48:16.297Z,67.85
2019-04-30T19:50:42.412Z,67.77
2019-04-30T19:53:08.846Z,66.85
2019-04-30T19:55:34.713Z,67.50
2019-04-30T19:58:00.812Z,67.42
2019-04-30T20:00:26.603Z,68.08
2019-04-30T20:02:52.413Z,68.58
2019-04-30T20:05:19.438Z,68.57
2019-04-30T20:07:45.367Z,68.97
2019-04-30T20:10:11.692Z,69.26
2019-04-30T20:12:38.849Z,70.03
2019-04-30T20:15:16.443Z,71.21
2019-04-30T20:17:33.374Z,71.23
2019-04-30T20:19:59.221Z,71.49
2019-04-30T20:22:25.302Z,71.88
2019-04-30T20:24:51.130Z,72.62
2019-04-30T20:27:18.983Z,73.25
2019-04-30T20:29:44.903Z,73.06
2019-04-30T20:32:10.734Z,72.97
2019-04-30T20:34:36.539Z,73.51
2019-04-30T20:37:02.745Z,73.98
2019-04-30T20:39:30.697Z,74.56
2019-04-30T20:41:56.488Z,74.36
2019-04-30T20:44:22.422Z,75.43
2019-04-30T20:46:49.102Z,74.84
2019-04-30T20:49:14.992Z,74.90
2019-04-30T20:51:52.687Z,74.30
2019-04-30T20:54:09.123Z,74.86
2019-04-30T20:56:35.011Z,75.49
2019-04-30T20:59:04.616Z,75.78
2019-04-30T21:01:29.484Z,75.96
2019-04-30T21:03:55.355Z,76.30
2019-04-30T21:06:21.457Z,75.66
2019-04-30T21:08:47.636Z,75.83
2019-04-30T21:11:13.461Z,76.11
2019-04-30T21:13:39.349Z,75.71
2019-04-30T21:16:05.342Z,76.02
2019-04-30T21:18:32.565Z,76.16
2019-04-30T21:20:59.637Z,76.91
2019-04-30T21:23:25.767Z,76.58
2019-04-30T21:25:51.582Z,77.08
2019-04-30T21:28:19.540Z,76.67
2019-04-30T21:30:45.124Z,76.64
2019-04-30T21:33:12.853Z,77.13
2019-04-30T21:35:40.567Z,77.09
2019-04-30T21:38:06.722Z,77.78
2019-04-30T21:40:32.616Z,77.66
2019-04-30T21:42:58.732Z,77.64
2019-04-30T21:45:24.556Z,78.00
2019-04-30T21:47:56.350Z,78.03
2019-04-30T21:50:19.719Z,77.97
2019-04-30T21:52:45.813Z,78.24
2019-04-30T21:55:11.773Z,78.45
2019-04-30T21:57:39.214Z,78.50
2019-04-30T22:02:59.827Z,78.13
2019-04-30T22:05:25.674Z,78.39
2019-04-30T22:07:51.484Z,77.95
2019-04-30T22:10:17.926Z,77.76
2019-04-30T22:12:43.737Z,77.93
2019-04-30T22:15:11.722Z,77.88
2019-04-30T22:17:39.180Z,77.90
2019-04-30T22:20:07.276Z,77.69
2019-04-30T22:22:34.550Z,77.72
2019-04-30T22:25:00.335Z,77.85
2019-04-30T22:27:26.438Z,77.89
2019-04-30T22:29:52.213Z,78.11
2019-04-30T22:32:18.028Z,78.06
2019-04-30T22:34:43.807Z,78.25
2019-04-30T22:37:09.995Z,78.16
2019-04-30T22:39:39.544Z,78.45
2019-04-30T22:42:31.916Z,78.38
2019-04-30T22:44:59.331Z,78.82
2019-04-30T22:47:25.119Z,79.36
2019-04-30T22:49:50.906Z,79.44
2019-04-30T22:52:16.723Z,79.07
2019-04-30T22:54:42.764Z,79.31
2019-04-30T22:57:08.859Z,79.72
2019-04-30T22:59:34.900Z,79.85
2019-04-30T23:02:02.607Z,80.04
2019-04-30T23:04:36.547Z,80.21
2019-04-30T23:07:02.575Z,80.40
2019-04-30T23:09:28.360Z,80.11
2019-04-30T23:11:54.387Z,79.82
2019-04-30T23:14:20.478Z,80.06
2019-04-30T23:16:46.271Z,79.96
2019-04-30T23:19:12.073Z,80.06
2019-04-30T23:21:37.858Z,80.41
2019-04-30T23:24:03.668Z,80.21
2019-04-30T23:26:29.729Z,79.92
2019-04-30T23:28:55.812Z,80.72
2019-04-30T23:31:21.600Z,80.79
2019-04-30T23:33:47.422Z,80.72
2019-04-30T23:36:13.209Z,80.68
2019-04-30T23:38:39.005Z,79.21
2019-04-30T23:41:04.822Z,78.98
2019-04-30T23:43:30.913Z,80.09
2019-04-30T23:45:56.736Z,81.38
2019-04-30T23:48:22.523Z,81.64
2019-04-30T23:50:48.559Z,81.73
2019-04-30T23:53:14.367Z,81.58
2019-04-30T23:55:40.306Z,81.66
2019-04-30T23:58:06.145Z,81.74
